createdAt,value
2018-08-11T18:10:40.268Z,27.77
2018-08-11T18:11:40.137Z,27.65
2018-08-11T18:12:40.113Z,27.59
2018-08-11T18:13:39.998Z,27.51
2018-08-11T18:14:39.921Z,27.50
2018-08-11T18:15:39.795Z,27.41
2018-08-11T18:16:39.685Z,27.32
2018-08-11T18:17:39.586Z,27.40
2018-08-11T18:18:39.454Z,27.29
2018-08-11T18:19:39.370Z,27.24
2018-08-11T18:20:39.204Z,27.18
2018-08-11T18:21:39.110Z,27.12
2018-08-11T18:22:38.986Z,27.07
2018-08-11T18:23:38.852Z,26.89
2018-08-11T18:24:38.792Z,27.00
2018-08-11T18:25:38.570Z,26.85
2018-08-11T18:26:38.448Z,26.89
2018-08-11T18:27:38.329Z,26.76
2018-08-11T18:28:38.198Z,26.70
2018-08-11T18:29:38.073Z,26.62
2018-08-11T18:30:37.978Z,26.62
2018-08-11T18:31:37.830Z,26.54
2018-08-11T18:32:37.708Z,26.55
2018-08-11T18:33:37.589Z,26.47
2018-08-11T18:34:37.482Z,26.48
2018-08-11T18:35:37.368Z,26.44
2018-08-11T18:36:37.215Z,26.39
2018-08-11T18:37:37.091Z,26.35
2018-08-11T18:38:36.966Z,26.30
2018-08-11T18:39:36.847Z,26.32
2018-08-11T18:40:36.723Z,26.21
2018-08-11T18:41:36.627Z,26.20
2018-08-11T18:42:36.478Z,26.12
2018-08-11T18:43:36.360Z,26.18
2018-08-11T18:44:36.239Z,26.10
2018-08-11T18:45:36.123Z,26.06
2018-08-11T18:46:36.026Z,25.99
2018-08-11T18:47:36.140Z,25.88
2018-08-11T18:48:36.106Z,25.83
2018-08-11T18:49:35.653Z,25.83
2018-08-11T18:50:35.514Z,25.90
2018-08-11T18:51:35.423Z,25.82
2018-08-11T18:52:36.127Z,25.73
2018-08-11T18:53:35.151Z,25.67
2018-08-11T18:54:35.081Z,25.65
2018-08-11T18:55:34.909Z,25.67
2018-08-11T18:56:34.819Z,25.54
2018-08-11T18:57:34.677Z,25.50
2018-08-11T18:58:34.558Z,25.57
2018-08-11T18:59:34.445Z,25.51
2018-08-11T19:00:34.337Z,25.47
2018-08-11T19:01:34.247Z,25.39
2018-08-11T19:02:34.108Z,25.43
2018-08-11T19:03:33.989Z,25.40
2018-08-11T19:04:33.876Z,25.36
2018-08-11T19:05:33.762Z,25.42
2018-08-11T19:06:33.727Z,25.28
2018-08-11T19:07:33.539Z,25.33
2018-08-11T19:08:33.430Z,25.24
2018-08-11T19:09:33.324Z,25.15
2018-08-11T19:10:33.217Z,25.24
2018-08-11T19:11:33.140Z,25.09
2018-08-11T19:12:33.021Z,25.14
2018-08-11T19:13:32.900Z,25.15
2018-08-11T19:14:32.797Z,25.08
2018-08-11T19:15:32.692Z,25.03
2018-08-11T19:16:32.618Z,25.03
2018-08-11T19:17:32.485Z,24.95
2018-08-11T19:18:32.378Z,24.93
2018-08-11T19:19:32.271Z,24.85
2018-08-11T19:20:32.168Z,24.83
2018-08-11T19:21:32.067Z,24.65
2018-08-11T19:22:31.995Z,24.57
2018-08-11T19:23:31.869Z,24.43
2018-08-11T19:24:31.769Z,24.43
2018-08-11T19:25:31.710Z,24.37
2018-08-11T19:26:31.718Z,24.28
2018-08-11T19:27:31.503Z,24.24
2018-08-11T19:28:31.379Z,24.27
2018-08-11T19:29:31.282Z,24.10
2018-08-11T19:30:31.192Z,23.94
2018-08-11T19:31:31.098Z,23.84
2018-08-11T19:32:31.058Z,23.72
2018-08-11T19:33:30.940Z,23.68
2018-08-11T19:34:30.809Z,23.57
2018-08-11T19:35:30.701Z,23.58
2018-08-11T19:36:30.602Z,23.61
2018-08-11T19:37:30.502Z,23.58
2018-08-11T19:38:30.438Z,23.65
2018-08-11T19:39:30.318Z,23.55
2018-08-11T19:40:30.225Z,23.69
2018-08-11T19:41:30.125Z,23.61
2018-08-11T19:42:30.032Z,23.63
2018-08-11T19:43:29.964Z,23.69
2018-08-11T19:44:29.843Z,23.65
2018-08-11T19:45:29.758Z,23.57
2018-08-11T19:46:29.726Z,23.55
2018-08-11T19:47:29.580Z,23.57
2018-08-11T19:48:29.494Z,23.57
2018-08-11T19:49:29.425Z,23.55
2018-08-11T19:50:29.320Z,23.68
2018-08-11T19:51:29.224Z,23.53
2018-08-11T19:52:29.136Z,23.66
2018-08-11T19:53:29.052Z,23.63
2018-08-11T19:54:28.993Z,23.60
2018-08-11T19:55:28.883Z,23.68
2018-08-11T19:56:28.789Z,23.54
2018-08-11T19:57:28.703Z,23.63
2018-08-11T19:58:28.617Z,23.57
2018-08-11T19:59:28.613Z,23.57
2018-08-11T20:00:28.449Z,23.57
2018-08-11T20:01:28.428Z,23.48
2018-08-11T20:02:28.284Z,23.42
2018-08-11T20:03:28.206Z,23.51
2018-08-11T20:04:28.122Z,23.46
2018-08-11T20:05:28.072Z,23.42
2018-08-11T20:06:27.950Z,23.36
2018-08-11T20:07:27.872Z,23.32
2018-08-11T20:08:27.773Z,23.22
2018-08-11T20:09:27.687Z,23.36
2018-08-11T20:10:27.630Z,23.15
2018-08-11T20:11:27.520Z,23.17
2018-08-11T20:12:27.437Z,23.12
2018-08-11T20:13:27.354Z,23.07
2018-08-11T20:14:27.285Z,23.00
2018-08-11T20:15:27.307Z,22.95
2018-08-11T20:16:27.141Z,23.01
2018-08-11T20:17:27.050Z,22.97
2018-08-11T20:18:26.965Z,22.91
2018-08-11T20:19:27.003Z,22.80
2018-08-11T20:20:26.844Z,22.86
2018-08-11T20:21:26.744Z,22.75
2018-08-11T20:22:26.673Z,22.67
2018-08-11T20:23:26.597Z,22.62
2018-08-11T20:24:26.522Z,22.52
2018-08-11T20:25:26.638Z,22.60
2018-08-11T20:26:26.377Z,22.55
2018-08-11T20:27:26.300Z,22.52
2018-08-11T20:28:26.226Z,22.40
2018-08-11T20:29:26.156Z,22.43
2018-08-11T20:30:26.127Z,22.47
2018-08-11T20:31:26.024Z,22.42
2018-08-11T20:32:25.944Z,22.40
2018-08-11T20:33:25.883Z,22.51
2018-08-11T20:34:25.807Z,22.49
2018-08-11T20:35:25.729Z,22.43
2018-08-11T20:36:25.689Z,22.45
2018-08-11T20:37:25.596Z,22.51
2018-08-11T20:38:25.526Z,22.42
2018-08-11T20:39:25.463Z,22.36
2018-08-11T20:40:25.397Z,22.37
2018-08-11T20:41:25.359Z,22.39
2018-08-11T20:42:25.268Z,22.33
2018-08-11T20:43:25.203Z,22.31
2018-08-11T20:44:25.145Z,22.30
2018-08-11T20:45:25.070Z,22.20
2018-08-11T20:46:25.027Z,22.06
2018-08-11T20:47:24.949Z,21.86
2018-08-11T20:48:24.870Z,21.92
2018-08-11T20:49:24.809Z,21.99
2018-08-11T20:50:24.751Z,21.94
2018-08-11T20:51:24.712Z,21.99
2018-08-11T20:52:24.616Z,21.99
2018-08-11T20:53:24.551Z,22.06
2018-08-11T20:54:24.485Z,22.00
2018-08-11T20:55:24.429Z,22.05
2018-08-11T20:56:24.397Z,22.03
2018-08-11T20:57:24.296Z,21.99
2018-08-11T20:58:24.239Z,22.02
2018-08-11T20:59:24.175Z,22.00
2018-08-11T21:00:24.143Z,22.10
2018-08-11T21:01:24.103Z,22.03
2018-08-11T21:02:23.999Z,22.09
2018-08-11T21:03:23.932Z,22.07
2018-08-11T21:04:23.874Z,22.12
2018-08-11T21:05:23.814Z,22.03
2018-08-11T21:06:23.782Z,22.03
2018-08-11T21:07:23.693Z,22.03
2018-08-11T21:08:23.632Z,22.03
2018-08-11T21:09:23.571Z,22.07
2018-08-11T21:10:23.514Z,22.05
2018-08-11T21:11:23.476Z,22.02
2018-08-11T21:12:23.396Z,21.98
2018-08-11T21:13:23.331Z,21.83
2018-08-11T21:14:23.266Z,21.84
2018-08-11T21:15:23.242Z,21.83
2018-08-11T21:16:23.179Z,21.82
2018-08-11T21:17:23.093Z,21.82
2018-08-11T21:18:23.047Z,21.65
2018-08-11T21:19:22.985Z,21.67
2018-08-11T21:20:22.928Z,21.54
2018-08-11T21:21:22.906Z,21.52
2018-08-11T21:22:22.825Z,21.44
2018-08-11T21:23:22.795Z,21.43
2018-08-11T21:24:22.717Z,21.37
2018-08-11T21:25:22.663Z,21.44
2018-08-11T21:26:22.668Z,21.34
2018-08-11T21:27:22.581Z,21.31
2018-08-11T21:28:22.535Z,21.37
2018-08-11T21:29:22.452Z,21.37
2018-08-11T21:30:22.400Z,21.34
2018-08-11T21:31:22.376Z,21.38
2018-08-11T21:32:22.293Z,21.29
2018-08-11T21:33:22.243Z,21.16
2018-08-11T21:34:22.195Z,21.17
2018-08-11T21:35:22.150Z,21.17
2018-08-11T21:36:22.125Z,21.16
2018-08-11T21:37:22.048Z,21.13
2018-08-11T21:38:21.989Z,21.07
2018-08-11T21:39:21.940Z,21.07
2018-08-11T21:40:21.889Z,21.14
2018-08-11T21:41:21.875Z,21.04
2018-08-11T21:42:21.797Z,21.10
2018-08-11T21:43:21.749Z,21.03
2018-08-11T21:44:21.706Z,21.07
2018-08-11T21:45:21.665Z,21.09
2018-08-11T21:46:21.662Z,21.12
2018-08-11T21:47:21.574Z,21.14
2018-08-11T21:48:21.544Z,21.12
2018-08-11T21:49:21.491Z,21.10
2018-08-11T21:50:21.482Z,21.16
2018-08-11T21:51:21.421Z,21.22
2018-08-11T21:52:21.346Z,21.12
2018-08-11T21:53:21.284Z,21.17
2018-08-11T21:54:21.239Z,21.24
2018-08-11T21:55:21.210Z,21.13
2018-08-11T21:56:21.178Z,21.12
2018-08-11T21:57:21.101Z,21.09
2018-08-11T21:58:21.054Z,21.03
2018-08-11T21:59:21.011Z,21.03
2018-08-11T22:00:20.966Z,21.03
2018-08-11T22:01:20.923Z,21.10
2018-08-11T22:02:20.905Z,21.03
2018-08-11T22:03:20.836Z,21.01
2018-08-11T22:04:20.792Z,21.03
2018-08-11T22:05:20.748Z,20.95
2018-08-11T22:06:20.711Z,20.89
2018-08-11T22:07:20.776Z,20.99
2018-08-11T22:08:20.621Z,20.95
2018-08-11T22:09:20.578Z,20.97
2018-08-11T22:10:20.546Z,20.89
2018-08-11T22:11:20.495Z,20.91
2018-08-11T22:12:20.478Z,20.95
2018-08-11T22:13:20.408Z,20.92
2018-08-11T22:14:20.375Z,20.84
2018-08-11T22:15:20.316Z,20.82
2018-08-11T22:16:20.284Z,20.76
2018-08-11T22:17:20.259Z,20.77
2018-08-11T22:18:20.200Z,20.70
2018-08-11T22:19:20.151Z,20.77
2018-08-11T22:20:20.113Z,20.74
2018-08-11T22:21:20.071Z,20.73
2018-08-11T22:22:20.060Z,20.76
2018-08-11T22:23:20.004Z,20.74
2018-08-11T22:24:19.976Z,20.73
2018-08-11T22:25:19.913Z,20.80
2018-08-11T22:26:19.877Z,20.76
2018-08-11T22:27:19.864Z,20.76
2018-08-11T22:28:19.803Z,20.73
2018-08-11T22:29:19.764Z,20.73
2018-08-11T22:30:19.730Z,20.70
2018-08-11T22:31:19.689Z,20.62
2018-08-11T22:32:19.683Z,20.66
2018-08-11T22:33:19.615Z,20.67
2018-08-11T22:34:19.595Z,20.64
2018-08-11T22:35:19.542Z,20.52
2018-08-11T22:36:19.507Z,20.52
2018-08-11T22:37:19.506Z,20.54
2018-08-11T22:38:19.432Z,20.50
2018-08-11T22:39:19.399Z,20.52
2018-08-11T22:40:19.365Z,20.50
2018-08-11T22:41:19.333Z,20.42
2018-08-11T22:42:19.323Z,20.48
2018-08-11T22:43:19.260Z,20.54
2018-08-11T22:44:19.228Z,20.47
2018-08-11T22:45:19.192Z,20.42
2018-08-11T22:46:19.166Z,20.38
2018-08-11T22:47:19.320Z,20.41
2018-08-11T22:48:19.097Z,20.39
2018-08-11T22:49:19.055Z,20.31
2018-08-11T22:50:19.019Z,20.36
2018-08-11T22:51:18.995Z,20.28
2018-08-11T22:52:18.948Z,20.29
2018-08-11T22:53:18.939Z,20.20
2018-08-11T22:54:18.877Z,20.14
2018-08-11T22:55:18.849Z,20.06
2018-08-11T22:56:18.823Z,19.96
2018-08-11T22:57:18.786Z,19.91
2018-08-11T22:58:18.788Z,19.81
2018-08-11T22:59:18.732Z,19.77
2018-08-11T23:00:18.703Z,19.78
2018-08-11T23:01:18.672Z,19.74
2018-08-11T23:02:18.649Z,19.66
2018-08-11T23:03:18.637Z,19.66
2018-08-11T23:04:18.588Z,19.71
2018-08-11T23:05:18.550Z,19.66
2018-08-11T23:06:18.524Z,19.69
2018-08-11T23:07:18.502Z,19.66
2018-08-11T23:08:18.511Z,19.55
2018-08-11T23:09:18.461Z,19.54
2018-08-11T23:10:18.451Z,19.54
2018-08-11T23:11:18.427Z,19.51
2018-08-11T23:12:18.388Z,19.62
2018-08-11T23:13:18.413Z,19.51
2018-08-11T23:14:18.350Z,19.59
2018-08-11T23:15:18.325Z,19.50
2018-08-11T23:16:18.302Z,19.62
2018-08-11T23:17:18.290Z,19.59
2018-08-11T23:18:18.299Z,19.59
2018-08-11T23:19:18.246Z,19.63
2018-08-11T23:20:18.229Z,19.59
2018-08-11T23:21:18.216Z,19.61
2018-08-11T23:22:18.199Z,19.69
2018-08-11T23:23:18.206Z,19.69
2018-08-11T23:24:18.150Z,19.63
2018-08-11T23:25:18.135Z,19.65
2018-08-11T23:26:18.121Z,19.69
2018-08-11T23:27:18.095Z,19.71
2018-08-11T23:28:18.106Z,19.68
2018-08-11T23:29:18.067Z,19.69
2018-08-11T23:30:18.060Z,19.65
2018-08-11T23:31:18.032Z,19.69
2018-08-11T23:32:18.020Z,19.66
2018-08-11T23:33:18.029Z,19.63
2018-08-11T23:34:17.988Z,19.73
2018-08-11T23:35:17.976Z,19.69
2018-08-11T23:36:17.953Z,19.63
2018-08-11T23:37:17.932Z,19.63
2018-08-11T23:38:17.943Z,19.66
2018-08-11T23:39:17.914Z,19.65
2018-08-11T23:40:17.877Z,19.66
2018-08-11T23:41:17.862Z,19.63
2018-08-11T23:42:17.841Z,19.61
2018-08-11T23:43:17.851Z,19.71
2018-08-11T23:44:17.807Z,19.59
2018-08-11T23:45:17.789Z,19.63
2018-08-11T23:46:17.772Z,19.65
2018-08-11T23:47:17.763Z,19.65
2018-08-11T23:48:17.766Z,19.63
2018-08-11T23:49:17.719Z,19.71
2018-08-11T23:50:17.700Z,19.66
2018-08-11T23:51:17.709Z,19.56
2018-08-11T23:52:17.666Z,19.58
2018-08-11T23:53:17.695Z,19.59
2018-08-11T23:54:17.638Z,19.62
2018-08-11T23:55:17.624Z,19.59
2018-08-11T23:56:17.609Z,19.62
2018-08-11T23:57:17.594Z,19.54
2018-08-11T23:58:17.582Z,19.59
2018-08-11T23:59:17.617Z,19.56
